sensor_id;sensor_type;location;lat;lon;timestamp;P1;durP1;ratioP1;P2;durP2;ratioP2
43540;SDS011;29549;40.386;-3.710;2022-12-01T00:00:34;8.98;;;4.70;;
43540;SDS011;29549;40.386;-3.710;2022-12-01T00:10:36;10.20;;;4.30;;
43540;SDS011;29549;40.386;-3.710;2022-12-01T00:20:38;9.02;;;4.32;;
43540;SDS011;29549;40.386;-3.710;2022-12-01T00:30:40;8.73;;;4.28;;
43540;SDS011;29549;40.386;-3.710;2022-12-01T00:40:42;8.95;;;5.38;;
43540;SDS011;29549;40.386;-3.710;2022-12-01T00:50:44;8.93;;;5.15;;
43540;SDS011;29549;40.386;-3.710;2022-12-01T01:00:46;9.57;;;5.10;;
43540;SDS011;29549;40.386;-3.710;2022-12-01T01:10:49;8.50;;;5.50;;
43540;SDS011;29549;40.386;-3.710;2022-12-01T01:20:55;11.30;;;4.80;;
43540;SDS011;29549;40.386;-3.710;2022-12-01T01:30:58;13.63;;;5.57;;
43540;SDS011;29549;40.386;-3.710;2022-12-01T01:41:04;12.40;;;5.13;;
43540;SDS011;29549;40.386;-3.710;2022-12-01T01:51:06;8.98;;;5.32;;
43540;SDS011;29549;40.386;-3.710;2022-12-01T02:01:10;9.07;;;5.15;;
43540;SDS011;29549;40.386;-3.710;2022-12-01T02:11:19;16.40;;;5.68;;
43540;SDS011;29549;40.386;-3.710;2022-12-01T02:32:08;10.75;;;6.15;;
43540;SDS011;29549;40.386;-3.710;2022-12-01T02:53:06;10.63;;;5.95;;
43540;SDS011;29549;40.386;-3.710;2022-12-01T03:03:18;15.88;;;7.88;;
43540;SDS011;29549;40.386;-3.710;2022-12-01T03:13:44;10.73;;;6.47;;
43540;SDS011;29549;40.386;-3.710;2022-12-01T03:24:02;10.60;;;6.20;;
43540;SDS011;29549;40.386;-3.710;2022-12-01T03:34:09;10.80;;;6.50;;
43540;SDS011;29549;40.386;-3.710;2022-12-01T03:44:15;8.30;;;6.00;;
43540;SDS011;29549;40.386;-3.710;2022-12-01T04:04:45;12.63;;;5.85;;
43540;SDS011;29549;40.386;-3.710;2022-12-01T04:14:48;10.27;;;5.80;;
43540;SDS011;29549;40.386;-3.710;2022-12-01T04:24:53;10.23;;;6.40;;
43540;SDS011;29549;40.386;-3.710;2022-12-01T04:34:56;9.93;;;5.97;;
43540;SDS011;29549;40.386;-3.710;2022-12-01T04:44:59;10.68;;;6.30;;
43540;SDS011;29549;40.386;-3.710;2022-12-01T04:55:00;11.38;;;6.60;;
43540;SDS011;29549;40.386;-3.710;2022-12-01T05:05:04;12.80;;;5.50;;
43540;SDS011;29549;40.386;-3.710;2022-12-01T05:15:08;9.13;;;5.30;;
43540;SDS011;29549;40.386;-3.710;2022-12-01T05:25:11;8.63;;;5.57;;
43540;SDS011;29549;40.386;-3.710;2022-12-01T05:35:13;9.57;;;5.07;;
43540;SDS011;29549;40.386;-3.710;2022-12-01T05:45:18;11.93;;;5.80;;
43540;SDS011;29549;40.386;-3.710;2022-12-01T05:55:20;9.60;;;6.07;;
43540;SDS011;29549;40.386;-3.710;2022-12-01T06:05:23;12.18;;;5.30;;
43540;SDS011;29549;40.386;-3.710;2022-12-01T06:15:25;9.95;;;5.50;;
43540;SDS011;29549;40.386;-3.710;2022-12-01T06:25:28;9.80;;;5.10;;
43540;SDS011;29549;40.386;-3.710;2022-12-01T06:35:55;9.18;;;5.07;;
43540;SDS011;29549;40.386;-3.710;2022-12-01T06:46:20;7.35;;;4.72;;
43540;SDS011;29549;40.386;-3.710;2022-12-01T06:56:42;10.50;;;5.38;;
43540;SDS011;29549;40.386;-3.710;2022-12-01T07:07:04;9.70;;;4.32;;
43540;SDS011;29549;40.386;-3.710;2022-12-01T07:17:26;5.32;;;3.13;;
43540;SDS011;29549;40.386;-3.710;2022-12-01T07:27:47;6.70;;;4.40;;
43540;SDS011;29549;40.386;-3.710;2022-12-01T07:37:54;6.53;;;2.90;;
43540;SDS011;29549;40.386;-3.710;2022-12-01T07:48:00;5.22;;;2.00;;
43540;SDS011;29549;40.386;-3.710;2022-12-01T07:58:04;6.22;;;3.53;;
43540;SDS011;29549;40.386;-3.710;2022-12-01T08:08:06;4.45;;;1.98;;
43540;SDS011;29549;40.386;-3.710;2022-12-01T08:18:09;4.10;;;2.53;;
43540;SDS011;29549;40.386;-3.710;2022-12-01T08:28:11;8.15;;;2.50;;
43540;SDS011;29549;40.386;-3.710;2022-12-01T08:38:14;6.40;;;2.30;;
43540;SDS011;29549;40.386;-3.710;2022-12-01T08:48:15;6.38;;;2.63;;
43540;SDS011;29549;40.386;-3.710;2022-12-01T08:58:17;7.75;;;2.30;;
43540;SDS011;29549;40.386;-3.710;2022-12-01T09:08:19;6.68;;;2.70;;
43540;SDS011;29549;40.386;-3.710;2022-12-01T09:18:33;3.47;;;2.20;;
43540;SDS011;29549;40.386;-3.710;2022-12-01T09:28:35;8.45;;;3.90;;
43540;SDS011;29549;40.386;-3.710;2022-12-01T09:38:37;9.25;;;3.20;;
43540;SDS011;29549;40.386;-3.710;2022-12-01T09:48:40;5.05;;;3.53;;
43540;SDS011;29549;40.386;-3.710;2022-12-01T10:19:23;7.20;;;3.00;;
43540;SDS011;29549;40.386;-3.710;2022-12-01T10:39:52;9.48;;;1.95;;
43540;SDS011;29549;40.386;-3.710;2022-12-01T10:49:56;6.93;;;4.75;;
43540;SDS011;29549;40.386;-3.710;2022-12-01T11:10:24;4.38;;;2.30;;
43540;SDS011;29549;40.386;-3.710;2022-12-01T11:20:35;4.45;;;1.80;;
43540;SDS011;29549;40.386;-3.710;2022-12-01T11:30:39;5.00;;;2.40;;
43540;SDS011;29549;40.386;-3.710;2022-12-01T11:40:53;4.90;;;1.95;;
43540;SDS011;29549;40.386;-3.710;2022-12-01T12:02:22;4.13;;;1.20;;
43540;SDS011;29549;40.386;-3.710;2022-12-01T12:22:28;2.28;;;1.20;;
43540;SDS011;29549;40.386;-3.710;2022-12-01T12:44:02;3.60;;;1.45;;
43540;SDS011;29549;40.386;-3.710;2022-12-01T12:53:37;1.52;;;1.05;;
43540;SDS011;29549;40.386;-3.710;2022-12-01T13:04:06;2.53;;;0.75;;
43540;SDS011;29549;40.386;-3.710;2022-12-01T13:14:29;3.28;;;1.52;;
43540;SDS011;29549;40.386;-3.710;2022-12-01T13:24:36;2.97;;;1.15;;
43540;SDS011;29549;40.386;-3.710;2022-12-01T13:34:41;1.30;;;0.82;;
43540;SDS011;29549;40.386;-3.710;2022-12-01T13:44:44;6.30;;;2.40;;
43540;SDS011;29549;40.386;-3.710;2022-12-01T14:15:26;4.28;;;0.90;;
43540;SDS011;29549;40.386;-3.710;2022-12-01T14:25:31;1.27;;;0.80;;
43540;SDS011;29549;40.386;-3.710;2022-12-01T14:35:34;2.35;;;0.80;;
43540;SDS011;29549;40.386;-3.710;2022-12-01T14:55:46;2.28;;;1.08;;
43540;SDS011;29549;40.386;-3.710;2022-12-01T15:06:23;1.67;;;1.10;;
43540;SDS011;29549;40.386;-3.710;2022-12-01T15:16:29;2.92;;;1.15;;
43540;SDS011;29549;40.386;-3.710;2022-12-01T15:26:33;3.38;;;1.60;;
43540;SDS011;29549;40.386;-3.710;2022-12-01T15:36:37;3.60;;;1.20;;
43540;SDS011;29549;40.386;-3.710;2022-12-01T15:46:38;3.83;;;1.50;;
43540;SDS011;29549;40.386;-3.710;2022-12-01T15:56:40;3.85;;;1.20;;
43540;SDS011;29549;40.386;-3.710;2022-12-01T16:06:42;2.35;;;0.90;;
43540;SDS011;29549;40.386;-3.710;2022-12-01T16:16:54;2.70;;;0.95;;
43540;SDS011;29549;40.386;-3.710;2022-12-01T16:26:59;1.42;;;1.08;;
43540;SDS011;29549;40.386;-3.710;2022-12-01T16:37:11;3.80;;;1.20;;
43540;SDS011;29549;40.386;-3.710;2022-12-01T16:57:18;2.17;;;1.20;;
43540;SDS011;29549;40.386;-3.710;2022-12-01T17:07:20;4.07;;;1.35;;
43540;SDS011;29549;40.386;-3.710;2022-12-01T17:17:22;4.43;;;1.38;;
43540;SDS011;29549;40.386;-3.710;2022-12-01T17:27:24;3.17;;;2.30;;
43540;SDS011;29549;40.386;-3.710;2022-12-01T17:37:27;4.38;;;2.00;;
43540;SDS011;29549;40.386;-3.710;2022-12-01T17:47:29;4.63;;;1.50;;
43540;SDS011;29549;40.386;-3.710;2022-12-01T17:57:30;4.78;;;2.00;;
43540;SDS011;29549;40.386;-3.710;2022-12-01T18:07:33;4.55;;;2.10;;
43540;SDS011;29549;40.386;-3.710;2022-12-01T18:17:35;4.10;;;2.50;;
43540;SDS011;29549;40.386;-3.710;2022-12-01T18:27:37;4.30;;;1.92;;
43540;SDS011;29549;40.386;-3.710;2022-12-01T18:37:39;5.43;;;1.85;;
43540;SDS011;29549;40.386;-3.710;2022-12-01T18:47:41;3.88;;;2.03;;
43540;SDS011;29549;40.386;-3.710;2022-12-01T18:57:42;3.97;;;1.77;;
43540;SDS011;29549;40.386;-3.710;2022-12-01T19:07:44;4.25;;;2.13;;
43540;SDS011;29549;40.386;-3.710;2022-12-01T19:17:46;3.75;;;2.00;;
43540;SDS011;29549;40.386;-3.710;2022-12-01T19:27:48;5.47;;;2.28;;
43540;SDS011;29549;40.386;-3.710;2022-12-01T19:37:51;8.27;;;4.20;;
43540;SDS011;29549;40.386;-3.710;2022-12-01T19:47:52;12.88;;;4.00;;
43540;SDS011;29549;40.386;-3.710;2022-12-01T19:57:54;5.22;;;2.05;;
43540;SDS011;29549;40.386;-3.710;2022-12-01T20:07:56;4.22;;;1.80;;
43540;SDS011;29549;40.386;-3.710;2022-12-01T20:17:58;4.70;;;2.20;;
43540;SDS011;29549;40.386;-3.710;2022-12-01T20:28:00;5.68;;;2.35;;
43540;SDS011;29549;40.386;-3.710;2022-12-01T20:38:02;3.90;;;1.88;;
43540;SDS011;29549;40.386;-3.710;2022-12-01T20:48:04;5.10;;;2.28;;
43540;SDS011;29549;40.386;-3.710;2022-12-01T20:58:06;3.95;;;1.42;;
43540;SDS011;29549;40.386;-3.710;2022-12-01T21:08:09;9.25;;;3.33;;
43540;SDS011;29549;40.386;-3.710;2022-12-01T21:18:20;8.87;;;4.90;;
43540;SDS011;29549;40.386;-3.710;2022-12-01T21:28:25;6.55;;;3.35;;
43540;SDS011;29549;40.386;-3.710;2022-12-01T21:38:27;8.02;;;4.88;;
43540;SDS011;29549;40.386;-3.710;2022-12-01T21:48:34;6.43;;;2.67;;
43540;SDS011;29549;40.386;-3.710;2022-12-01T21:58:37;4.63;;;2.60;;
43540;SDS011;29549;40.386;-3.710;2022-12-01T22:08:39;2.75;;;1.40;;
43540;SDS011;29549;40.386;-3.710;2022-12-01T22:18:48;1.85;;;1.20;;
43540;SDS011;29549;40.386;-3.710;2022-12-01T22:28:53;2.95;;;1.40;;
43540;SDS011;29549;40.386;-3.710;2022-12-01T22:38:56;3.67;;;1.80;;
43540;SDS011;29549;40.386;-3.710;2022-12-01T22:49:12;4.53;;;2.17;;
43540;SDS011;29549;40.386;-3.710;2022-12-01T22:59:22;2.92;;;1.65;;
43540;SDS011;29549;40.386;-3.710;2022-12-01T23:09:33;2.13;;;1.40;;
43540;SDS011;29549;40.386;-3.710;2022-12-01T23:19:44;4.25;;;1.65;;
43540;SDS011;29549;40.386;-3.710;2022-12-01T23:29:46;7.35;;;3.25;;
43540;SDS011;29549;40.386;-3.710;2022-12-01T23:39:47;2.53;;;1.30;;
43540;SDS011;29549;40.386;-3.710;2022-12-01T23:49:52;3.05;;;1.40;;
43540;SDS011;29549;40.386;-3.710;2022-12-01T23:59:59;2.00;;;1.20;;
